createdAt,value
2022-10-19T00:01:17.127Z,2.95
2022-10-19T00:06:25.886Z,4.18
2022-10-19T00:08:59.340Z,3.22
2022-10-19T00:11:27.912Z,3.50
2022-10-19T00:13:57.142Z,3.67
2022-10-19T00:16:27.440Z,4.00
2022-10-19T00:18:58.261Z,3.88
2022-10-19T00:21:25.908Z,4.43
2022-10-19T00:23:53.384Z,7.47
2022-10-19T00:26:20.793Z,5.85
2022-10-19T00:28:48.184Z,9.18
2022-10-19T00:31:18.371Z,7.22
2022-10-19T00:33:47.081Z,4.75
2022-10-19T00:36:25.118Z,3.58
2022-10-19T00:38:53.682Z,6.47
2022-10-19T00:41:23.491Z,8.95
2022-10-19T00:43:58.461Z,4.88
2022-10-19T00:46:27.553Z,3.25
2022-10-19T00:49:01.224Z,7.10
2022-10-19T00:51:30.459Z,4.45
2022-10-19T00:53:58.037Z,3.45
2022-10-19T00:56:26.618Z,8.85
2022-10-19T00:58:53.915Z,6.05
2022-10-19T01:01:24.704Z,3.63
2022-10-19T01:03:51.994Z,4.53
2022-10-19T01:06:19.793Z,7.20
2022-10-19T01:08:47.119Z,6.82
2022-10-19T01:11:32.825Z,6.38
2022-10-19T01:14:03.427Z,4.05
2022-10-19T01:17:05.019Z,4.80
2022-10-19T01:19:57.764Z,3.88
2022-10-19T01:22:42.100Z,5.32
2022-10-19T01:25:43.608Z,7.82
2022-10-19T01:28:48.432Z,1.42
2022-10-19T01:31:31.888Z,4.47
2022-10-19T01:34:32.843Z,6.38
2022-10-19T01:37:21.021Z,3.72
2022-10-19T01:39:57.707Z,7.35
2022-10-19T01:42:51.345Z,5.18
2022-10-19T01:45:24.883Z,6.65
2022-10-19T01:47:54.419Z,6.80
2022-10-19T01:50:31.577Z,7.18
2022-10-19T01:52:59.986Z,5.13
2022-10-19T01:55:28.364Z,3.30
2022-10-19T01:58:01.191Z,5.82
2022-10-19T02:00:30.880Z,5.55
2022-10-19T02:03:00.739Z,8.50
2022-10-19T02:05:32.195Z,4.78
2022-10-19T02:08:08.298Z,4.88
2022-10-19T02:10:38.917Z,2.90
2022-10-19T02:13:07.795Z,5.18
2022-10-19T02:15:39.724Z,7.03
2022-10-19T02:18:08.492Z,6.22
2022-10-19T02:20:37.339Z,3.45
2022-10-19T02:23:08.414Z,7.22
2022-10-19T02:25:36.533Z,6.32
2022-10-19T02:28:05.643Z,7.43
2022-10-19T02:30:33.148Z,8.38
2022-10-19T02:33:00.680Z,7.82
2022-10-19T02:35:28.361Z,4.50
2022-10-19T02:37:59.527Z,6.32
2022-10-19T02:40:29.935Z,14.02
2022-10-19T02:43:04.119Z,7.78
2022-10-19T02:45:36.707Z,8.93
2022-10-19T02:48:12.626Z,0.88
2022-10-19T02:50:44.465Z,5.32
2022-10-19T02:53:11.884Z,9.07
2022-10-19T02:58:11.512Z,11.63
2022-10-19T03:00:39.016Z,9.52
2022-10-19T03:03:06.616Z,7.80
2022-10-19T03:05:33.949Z,5.15
2022-10-19T03:08:01.427Z,7.15
2022-10-19T03:10:28.912Z,5.53
2022-10-19T03:12:58.439Z,4.88
2022-10-19T03:15:29.150Z,4.85
2022-10-19T03:17:56.850Z,9.35
2022-10-19T03:20:24.358Z,9.60
2022-10-19T03:25:23.971Z,8.20
2022-10-19T03:27:53.723Z,9.70
2022-10-19T03:30:20.962Z,6.07
2022-10-19T03:32:48.290Z,8.75
2022-10-19T03:35:15.706Z,10.32
2022-10-19T03:37:43.062Z,11.65
2022-10-19T03:40:10.556Z,10.70
2022-10-19T03:42:37.935Z,10.45
2022-10-19T03:45:05.633Z,9.35
2022-10-19T03:47:33.270Z,9.93
2022-10-19T03:50:00.929Z,5.88
2022-10-19T03:52:28.313Z,8.52
2022-10-19T03:54:55.546Z,7.65
2022-10-19T03:57:22.921Z,7.93
2022-10-19T03:59:50.296Z,5.53
2022-10-19T04:02:17.622Z,14.10
2022-10-19T04:04:44.873Z,11.38
2022-10-19T04:07:12.130Z,6.93
2022-10-19T04:09:39.795Z,14.48
2022-10-19T04:12:07.137Z,9.98
2022-10-19T04:14:52.672Z,7.03
2022-10-19T04:17:21.638Z,4.43
2022-10-19T04:19:49.035Z,3.75
2022-10-19T04:22:16.347Z,7.63
2022-10-19T04:24:43.540Z,9.68
2022-10-19T04:27:10.861Z,7.20
2022-10-19T04:29:38.252Z,7.30
2022-10-19T04:32:05.732Z,9.00
2022-10-19T04:34:35.226Z,7.15
2022-10-19T04:37:05.088Z,8.15
2022-10-19T04:39:32.412Z,5.75
2022-10-19T04:41:59.694Z,10.00
2022-10-19T04:44:26.998Z,6.18
2022-10-19T04:46:54.241Z,13.25
2022-10-19T04:49:21.512Z,8.15
2022-10-19T04:51:48.892Z,8.70
2022-10-19T04:54:16.160Z,11.43
2022-10-19T04:56:43.420Z,4.85
2022-10-19T04:59:10.775Z,12.70
2022-10-19T05:01:40.403Z,8.77
2022-10-19T05:04:10.394Z,4.38
2022-10-19T05:06:38.155Z,13.23
2022-10-19T05:09:05.443Z,8.93
2022-10-19T05:11:32.729Z,8.43
2022-10-19T05:13:59.951Z,11.05
2022-10-19T05:16:27.325Z,6.05
2022-10-19T05:18:56.903Z,12.10
2022-10-19T05:21:24.965Z,13.38
2022-10-19T05:23:54.144Z,21.27
2022-10-19T05:26:26.251Z,10.52
2022-10-19T05:28:56.617Z,11.90
2022-10-19T05:31:27.077Z,19.00
2022-10-19T05:33:56.373Z,8.05
2022-10-19T05:36:26.299Z,15.02
2022-10-19T05:38:56.095Z,17.98
2022-10-19T05:41:25.332Z,12.77
2022-10-19T05:43:55.143Z,14.35
2022-10-19T05:46:22.701Z,11.82
2022-10-19T05:48:50.011Z,11.45
2022-10-19T05:51:19.818Z,15.95
2022-10-19T05:53:47.450Z,17.70
2022-10-19T05:56:19.637Z,16.67
2022-10-19T05:58:48.032Z,9.13
2022-10-19T06:01:16.614Z,6.82
2022-10-19T06:03:43.857Z,15.10
2022-10-19T06:06:12.055Z,6.50
2022-10-19T06:08:39.680Z,14.52
2022-10-19T06:11:09.799Z,14.65
2022-10-19T06:13:37.933Z,13.15
2022-10-19T06:16:06.865Z,14.95
2022-10-19T06:18:34.292Z,14.07
2022-10-19T06:21:03.953Z,8.23
2022-10-19T06:23:32.757Z,12.07
2022-10-19T06:26:03.682Z,11.27
2022-10-19T06:28:30.979Z,11.27
2022-10-19T06:30:59.416Z,16.48
2022-10-19T06:33:27.910Z,16.20
2022-10-19T06:35:55.481Z,15.40
2022-10-19T06:38:22.804Z,13.50
2022-10-19T06:40:50.067Z,14.48
2022-10-19T06:43:17.299Z,11.82
2022-10-19T06:45:44.564Z,19.90
2022-10-19T06:48:11.824Z,14.43
2022-10-19T06:50:39.127Z,16.77
2022-10-19T06:53:06.464Z,15.93
2022-10-19T06:55:33.759Z,7.07
2022-10-19T06:58:01.922Z,14.57
2022-10-19T07:00:30.334Z,14.45
2022-10-19T07:02:59.491Z,9.65
2022-10-19T07:05:26.931Z,16.98
2022-10-19T07:07:54.211Z,10.80
2022-10-19T07:10:21.533Z,20.85
2022-10-19T07:12:48.865Z,14.30
2022-10-19T07:15:16.195Z,17.45
2022-10-19T07:17:43.440Z,18.55
2022-10-19T07:20:11.635Z,10.43
2022-10-19T07:22:38.891Z,14.05
2022-10-19T07:25:06.345Z,9.10
2022-10-19T07:27:37.849Z,26.42
2022-10-19T07:30:05.542Z,9.75
2022-10-19T07:32:32.737Z,13.82
2022-10-19T07:34:59.998Z,21.33
2022-10-19T07:37:27.345Z,8.77
2022-10-19T07:39:54.579Z,16.35
2022-10-19T07:44:53.859Z,15.27
2022-10-19T07:47:21.119Z,8.70
2022-10-19T07:49:48.680Z,14.57
2022-10-19T07:52:16.264Z,14.70
2022-10-19T07:54:43.486Z,11.60
2022-10-19T07:57:12.339Z,15.90
2022-10-19T07:59:39.605Z,10.38
2022-10-19T08:02:13.551Z,11.55
2022-10-19T08:04:59.779Z,13.35
2022-10-19T08:07:28.089Z,21.65
2022-10-19T08:09:55.471Z,8.90
2022-10-19T08:12:22.802Z,7.07
2022-10-19T08:14:50.012Z,13.23
2022-10-19T08:17:17.846Z,22.70
2022-10-19T08:19:46.524Z,11.35
2022-10-19T08:22:13.995Z,17.98
2022-10-19T08:24:41.176Z,12.50
2022-10-19T08:27:09.090Z,12.52
2022-10-19T08:29:36.330Z,9.15
2022-10-19T08:32:03.563Z,19.90
2022-10-19T08:34:30.829Z,11.43
2022-10-19T08:36:58.056Z,15.77
2022-10-19T08:39:25.248Z,13.13
2022-10-19T08:42:06.931Z,14.77
2022-10-19T08:44:50.898Z,10.82
2022-10-19T08:47:30.108Z,10.20
2022-10-19T08:49:58.723Z,14.07
2022-10-19T08:52:34.622Z,10.57
2022-10-19T08:55:16.430Z,13.35
2022-10-19T08:58:21.128Z,19.35
2022-10-19T09:01:06.080Z,9.23
2022-10-19T09:06:37.791Z,18.13
2022-10-19T09:09:06.506Z,11.40
2022-10-19T09:11:42.909Z,14.25
2022-10-19T09:14:31.554Z,24.35
2022-10-19T09:17:10.711Z,15.90
2022-10-19T09:19:37.998Z,16.98
2022-10-19T09:22:13.170Z,10.10
2022-10-19T09:24:57.383Z,13.30
2022-10-19T09:27:30.227Z,8.10
2022-10-19T09:30:01.267Z,17.05
2022-10-19T09:32:33.403Z,7.85
2022-10-19T09:35:04.927Z,20.17
2022-10-19T09:37:37.327Z,12.50
2022-10-19T09:40:06.570Z,12.48
2022-10-19T09:42:36.868Z,13.63
2022-10-19T09:45:43.253Z,16.80
2022-10-19T09:48:31.091Z,17.30
2022-10-19T09:51:03.945Z,9.95
2022-10-19T09:53:31.284Z,23.33
2022-10-19T09:56:07.636Z,9.20
2022-10-19T09:58:35.679Z,12.50
2022-10-19T10:01:03.904Z,10.75
2022-10-19T10:03:36.111Z,11.88
2022-10-19T10:06:14.150Z,10.20
2022-10-19T10:08:50.515Z,12.40
2022-10-19T10:11:25.145Z,12.27
2022-10-19T10:16:23.803Z,14.25
2022-10-19T10:19:03.968Z,13.30
2022-10-19T10:21:46.243Z,14.88
2022-10-19T10:24:13.386Z,11.10
2022-10-19T10:26:43.374Z,24.98
2022-10-19T10:29:20.619Z,20.42
2022-10-19T10:31:53.062Z,19.52
2022-10-19T10:34:50.239Z,23.95
2022-10-19T10:37:28.442Z,16.50
2022-10-19T10:40:00.527Z,13.80
2022-10-19T10:42:43.970Z,14.32
2022-10-19T10:45:19.547Z,18.13
2022-10-19T10:47:48.534Z,16.58
2022-10-19T10:50:31.629Z,12.95
2022-10-19T10:53:04.771Z,13.23
2022-10-19T10:55:33.125Z,11.93
2022-10-19T10:58:55.666Z,22.90
2022-10-19T11:01:27.899Z,23.08
2022-10-19T11:04:03.589Z,12.38
2022-10-19T11:06:34.090Z,18.02
2022-10-19T11:09:25.374Z,19.40
2022-10-19T11:11:56.175Z,17.88
2022-10-19T11:14:44.011Z,20.00
2022-10-19T11:17:33.167Z,15.73
2022-10-19T11:20:01.018Z,16.13
2022-10-19T11:22:35.004Z,16.33
2022-10-19T11:25:02.794Z,13.02
2022-10-19T11:27:57.022Z,15.27
2022-10-19T11:30:25.592Z,16.88
2022-10-19T11:33:14.929Z,16.50
2022-10-19T11:36:03.403Z,15.85
2022-10-19T11:38:51.050Z,14.27
2022-10-19T11:41:26.930Z,15.05
2022-10-19T11:44:06.329Z,18.05
2022-10-19T11:46:48.074Z,16.20
2022-10-19T11:49:45.612Z,18.23
2022-10-19T11:52:17.069Z,16.95
2022-10-19T11:55:13.975Z,14.15
2022-10-19T11:57:49.885Z,13.15
2022-10-19T12:00:38.074Z,14.85
2022-10-19T12:03:37.351Z,20.73
2022-10-19T12:06:13.079Z,14.25
2022-10-19T12:09:07.383Z,11.82
2022-10-19T12:12:02.371Z,19.77
2022-10-19T12:14:37.256Z,17.60
2022-10-19T12:17:21.814Z,20.60
2022-10-19T12:19:53.413Z,17.92
2022-10-19T12:22:29.910Z,14.32
2022-10-19T12:25:00.629Z,19.70
2022-10-19T12:27:35.430Z,15.25
2022-10-19T12:30:23.846Z,18.08
2022-10-19T12:33:15.483Z,22.98
2022-10-19T12:35:55.785Z,13.30
2022-10-19T12:38:48.027Z,20.70
2022-10-19T12:44:07.437Z,20.40
2022-10-19T12:46:40.530Z,19.98
2022-10-19T12:49:26.441Z,16.70
2022-10-19T12:51:55.622Z,11.07
2022-10-19T12:54:28.460Z,14.32
2022-10-19T12:56:58.548Z,19.52
2022-10-19T12:59:36.599Z,22.00
2022-10-19T13:02:06.788Z,23.38
2022-10-19T13:04:36.217Z,15.77
2022-10-19T13:07:08.269Z,14.07
2022-10-19T13:09:35.384Z,16.90
2022-10-19T13:12:21.571Z,16.88
2022-10-19T13:14:53.897Z,18.50
2022-10-19T13:17:49.151Z,13.88
2022-10-19T13:22:50.815Z,13.57
2022-10-19T13:25:23.782Z,30.10
2022-10-19T13:28:02.116Z,13.68
2022-10-19T13:30:38.520Z,18.77
2022-10-19T13:33:32.866Z,25.25
2022-10-19T13:36:00.081Z,20.98
2022-10-19T13:38:28.280Z,15.38
2022-10-19T13:40:55.415Z,17.58
2022-10-19T13:43:29.528Z,15.57
2022-10-19T13:46:20.117Z,15.40
2022-10-19T13:48:56.509Z,16.48
2022-10-19T13:51:37.750Z,15.52
2022-10-19T13:54:22.739Z,14.48
2022-10-19T13:56:57.986Z,22.75
2022-10-19T13:59:55.580Z,19.13
2022-10-19T14:02:43.879Z,20.60
2022-10-19T14:05:43.614Z,18.65
2022-10-19T14:08:19.847Z,26.55
2022-10-19T14:11:19.701Z,9.23
2022-10-19T14:14:06.723Z,18.17
2022-10-19T14:16:33.919Z,28.60
2022-10-19T14:19:01.355Z,16.00
2022-10-19T14:21:37.090Z,17.60
2022-10-19T14:24:30.486Z,12.23
2022-10-19T14:27:00.835Z,19.00
2022-10-19T14:29:28.585Z,13.48
2022-10-19T14:31:58.697Z,13.50
2022-10-19T14:34:26.054Z,18.98
2022-10-19T14:36:53.449Z,21.70
2022-10-19T14:39:33.409Z,29.00
2022-10-19T14:42:10.639Z,18.52
2022-10-19T14:44:43.224Z,18.27
2022-10-19T14:47:30.378Z,12.23
2022-10-19T14:49:57.613Z,14.77
2022-10-19T14:52:31.086Z,14.63
2022-10-19T14:55:02.011Z,16.30
2022-10-19T14:57:35.109Z,23.67
2022-10-19T15:00:10.694Z,19.98
2022-10-19T15:02:42.745Z,21.45
2022-10-19T15:05:23.795Z,15.05
2022-10-19T15:07:51.333Z,17.65
2022-10-19T15:10:30.307Z,16.88
2022-10-19T15:13:06.593Z,27.77
2022-10-19T15:15:35.506Z,14.88
2022-10-19T15:18:03.175Z,19.35
2022-10-19T15:20:44.132Z,11.07
2022-10-19T15:23:40.017Z,15.73
2022-10-19T15:26:29.576Z,22.63
2022-10-19T15:29:08.794Z,16.83
2022-10-19T15:31:36.178Z,23.48
2022-10-19T15:34:04.107Z,15.52
2022-10-19T15:36:32.989Z,25.92
2022-10-19T15:41:54.954Z,14.43
2022-10-19T15:44:42.373Z,18.55
2022-10-19T15:47:15.771Z,17.27
2022-10-19T15:49:43.106Z,20.08
2022-10-19T15:52:21.655Z,16.45
2022-10-19T15:54:50.908Z,18.23
2022-10-19T15:57:38.950Z,17.45
2022-10-19T16:00:17.630Z,27.80
2022-10-19T16:02:44.964Z,20.42
2022-10-19T16:05:12.171Z,13.82
2022-10-19T16:07:41.049Z,14.27
2022-10-19T16:10:14.452Z,13.98
2022-10-19T16:12:41.756Z,23.33
2022-10-19T16:15:22.184Z,17.92
2022-10-19T16:17:59.048Z,16.02
2022-10-19T16:20:28.651Z,16.95
2022-10-19T16:22:56.381Z,15.40
2022-10-19T16:25:23.792Z,16.13
2022-10-19T16:27:51.108Z,13.00
2022-10-19T16:30:18.351Z,17.63
2022-10-19T16:32:48.197Z,15.40
2022-10-19T16:35:15.781Z,18.40
2022-10-19T16:37:43.054Z,18.65
2022-10-19T16:40:10.554Z,20.27
2022-10-19T16:42:38.154Z,22.40
2022-10-19T16:45:05.890Z,18.90
2022-10-19T16:47:33.101Z,12.10
2022-10-19T16:50:01.871Z,13.27
2022-10-19T16:52:31.853Z,22.08
2022-10-19T16:54:59.989Z,19.08
2022-10-19T16:57:27.335Z,18.05
2022-10-19T16:59:55.047Z,11.30
2022-10-19T17:02:22.927Z,20.25
2022-10-19T17:04:50.283Z,15.38
2022-10-19T17:07:18.281Z,19.95
2022-10-19T17:09:45.721Z,17.90
2022-10-19T17:12:13.176Z,16.08
2022-10-19T17:14:41.963Z,15.95
2022-10-19T17:17:10.582Z,16.40
2022-10-19T17:19:38.124Z,26.50
2022-10-19T17:22:05.677Z,18.08
2022-10-19T17:24:33.207Z,20.02
2022-10-19T17:27:03.282Z,16.58
2022-10-19T17:29:31.145Z,21.30
2022-10-19T17:31:59.169Z,18.30
2022-10-19T17:34:27.448Z,17.35
2022-10-19T17:36:54.745Z,17.52
2022-10-19T17:39:27.235Z,21.17
2022-10-19T17:42:02.053Z,16.10
2022-10-19T17:44:31.578Z,28.55
2022-10-19T17:47:00.646Z,29.58
2022-10-19T17:49:29.873Z,17.23
2022-10-19T17:51:57.197Z,22.88
2022-10-19T17:54:24.483Z,16.27
2022-10-19T17:56:51.828Z,21.08
2022-10-19T17:59:29.941Z,17.63
2022-10-19T18:02:02.939Z,20.10
2022-10-19T18:04:30.155Z,14.77
2022-10-19T18:06:57.416Z,19.45
2022-10-19T18:09:24.583Z,28.13
2022-10-19T18:11:51.862Z,28.35
2022-10-19T18:14:19.061Z,28.67
2022-10-19T18:16:47.346Z,15.75
2022-10-19T18:19:16.171Z,12.65
2022-10-19T18:21:45.639Z,18.85
2022-10-19T18:24:16.965Z,20.30
2022-10-19T18:26:44.197Z,24.00
2022-10-19T18:29:17.623Z,22.10
2022-10-19T18:31:49.189Z,20.17
2022-10-19T18:34:17.286Z,13.73
2022-10-19T18:36:44.533Z,17.08
2022-10-19T18:39:13.423Z,20.52
2022-10-19T18:41:41.162Z,12.73
2022-10-19T18:44:11.581Z,14.60
2022-10-19T18:46:40.515Z,18.27
2022-10-19T18:49:08.348Z,18.30
2022-10-19T18:51:36.157Z,18.13
2022-10-19T18:54:03.705Z,17.27
2022-10-19T18:56:33.427Z,15.30
2022-10-19T18:59:00.707Z,19.98
2022-10-19T19:01:29.147Z,24.35
2022-10-19T19:03:58.397Z,16.98
2022-10-19T19:06:30.316Z,16.00
2022-10-19T19:08:59.254Z,18.25
2022-10-19T19:11:30.713Z,14.68
2022-10-19T19:14:10.938Z,19.40
2022-10-19T19:16:39.596Z,25.17
2022-10-19T19:19:07.964Z,21.65
2022-10-19T19:21:36.652Z,19.75
2022-10-19T19:24:06.284Z,25.38
2022-10-19T19:26:37.456Z,26.60
2022-10-19T19:29:04.892Z,23.83
2022-10-19T19:31:32.257Z,25.17
2022-10-19T19:34:01.157Z,26.92
2022-10-19T19:36:28.885Z,25.25
2022-10-19T19:38:57.532Z,17.60
2022-10-19T19:41:25.048Z,16.88
2022-10-19T19:43:55.533Z,17.08
2022-10-19T19:46:22.731Z,22.80
2022-10-19T19:48:49.952Z,10.93
2022-10-19T19:51:20.097Z,17.42
2022-10-19T19:53:48.213Z,27.85
2022-10-19T19:56:17.043Z,15.32
2022-10-19T19:58:45.263Z,17.33
2022-10-19T20:01:18.579Z,22.15
2022-10-19T20:03:46.833Z,23.83
2022-10-19T20:06:17.256Z,22.10
2022-10-19T20:08:45.966Z,20.58
2022-10-19T20:11:16.027Z,20.48
2022-10-19T20:13:44.928Z,18.88
2022-10-19T20:16:17.723Z,16.58
2022-10-19T20:18:48.390Z,17.45
2022-10-19T20:21:16.906Z,16.98
2022-10-19T20:23:47.862Z,24.33
2022-10-19T20:26:19.737Z,21.33
2022-10-19T20:28:47.123Z,20.77
2022-10-19T20:31:15.258Z,21.23
2022-10-19T20:33:44.101Z,22.83
2022-10-19T20:36:14.067Z,19.90
2022-10-19T20:38:49.918Z,14.32
2022-10-19T20:41:18.200Z,16.15
2022-10-19T20:43:48.579Z,23.98
2022-10-19T20:46:22.665Z,22.35
2022-10-19T20:48:51.051Z,26.35
2022-10-19T20:51:27.525Z,20.17
2022-10-19T20:54:00.465Z,24.48
2022-10-19T20:56:31.380Z,20.35
2022-10-19T21:01:30.584Z,19.90
2022-10-19T21:04:01.457Z,18.63
2022-10-19T21:06:30.523Z,26.80
2022-10-19T21:08:59.043Z,17.15
2022-10-19T21:11:32.249Z,22.95
2022-10-19T21:14:02.258Z,17.67
2022-10-19T21:16:30.416Z,18.85
2022-10-19T21:18:57.799Z,19.45
2022-10-19T21:21:27.868Z,20.27
2022-10-19T21:23:57.818Z,16.90
2022-10-19T21:26:26.627Z,21.98
2022-10-19T21:28:54.511Z,24.73
2022-10-19T21:31:23.296Z,18.92
2022-10-19T21:33:51.774Z,19.77
2022-10-19T21:36:21.054Z,23.83
2022-10-19T21:38:48.834Z,23.02
2022-10-19T21:41:20.972Z,16.98
2022-10-19T21:43:51.211Z,22.40
2022-10-19T21:46:20.286Z,24.75
2022-10-19T21:48:51.226Z,21.10
2022-10-19T21:51:24.274Z,16.95
2022-10-19T21:53:51.668Z,18.63
2022-10-19T21:56:18.874Z,18.55
2022-10-19T21:58:47.381Z,18.48
2022-10-19T22:01:15.473Z,24.50
2022-10-19T22:03:42.778Z,21.45
2022-10-19T22:06:11.459Z,22.42
2022-10-19T22:08:39.520Z,21.30
2022-10-19T22:11:12.083Z,15.80
2022-10-19T22:13:39.627Z,19.40
2022-10-19T22:16:16.170Z,18.00
2022-10-19T22:18:43.724Z,15.52
2022-10-19T22:21:13.928Z,17.42
2022-10-19T22:23:41.991Z,20.45
2022-10-19T22:26:19.609Z,15.38
2022-10-19T22:28:46.949Z,20.55
2022-10-19T22:31:14.467Z,19.00
2022-10-19T22:33:42.090Z,23.30
2022-10-19T22:36:13.135Z,23.90
2022-10-19T22:38:41.124Z,15.48
2022-10-19T22:42:04.547Z,18.52
2022-10-19T22:44:47.135Z,17.88
2022-10-19T22:47:14.349Z,18.25
2022-10-19T22:49:41.604Z,19.98
2022-10-19T22:52:08.870Z,17.55
2022-10-19T22:54:36.192Z,14.07
2022-10-19T22:57:03.677Z,19.30
2022-10-19T22:59:30.933Z,16.25
2022-10-19T23:01:58.196Z,19.13
2022-10-19T23:04:25.491Z,19.05
2022-10-19T23:06:52.688Z,17.90
2022-10-19T23:09:19.907Z,16.08
2022-10-19T23:11:47.248Z,18.20
2022-10-19T23:14:14.722Z,21.20
2022-10-19T23:16:42.019Z,23.00
2022-10-19T23:19:09.238Z,16.50
2022-10-19T23:21:36.475Z,18.08
2022-10-19T23:24:03.917Z,22.45
2022-10-19T23:26:31.177Z,18.33
2022-10-19T23:28:58.386Z,17.95
2022-10-19T23:31:26.839Z,16.00
2022-10-19T23:33:54.649Z,24.10
2022-10-19T23:36:25.449Z,23.25
2022-10-19T23:38:53.768Z,13.95
2022-10-19T23:41:21.925Z,15.23
2022-10-19T23:43:49.863Z,17.95
2022-10-19T23:46:17.050Z,21.10
2022-10-19T23:48:44.555Z,19.65
2022-10-19T23:51:14.444Z,18.67
2022-10-19T23:53:43.514Z,25.13
2022-10-19T23:56:23.001Z,20.85
2022-10-19T23:58:51.088Z,21.95
